createdAt,value
2023-01-19T00:01:01.000Z,0
2023-01-19T00:02:18.000Z,0
2023-01-19T00:03:34.000Z,0
2023-01-19T00:04:50.000Z,0
2023-01-19T00:06:06.000Z,0
2023-01-19T00:07:22.000Z,0
2023-01-19T00:09:55.000Z,0
2023-01-19T00:11:10.000Z,0
2023-01-19T00:12:25.000Z,0
2023-01-19T00:13:41.000Z,0
2023-01-19T00:14:58.000Z,0
2023-01-19T00:16:14.000Z,0
2023-01-19T00:17:30.000Z,0
2023-01-19T00:18:46.000Z,0
2023-01-19T00:21:19.000Z,0
2023-01-19T00:22:35.000Z,0
2023-01-19T00:23:51.000Z,0
2023-01-19T00:25:07.000Z,0
2023-01-19T00:26:23.000Z,0
2023-01-19T00:27:40.000Z,0
2023-01-19T00:28:55.000Z,0
2023-01-19T00:30:11.000Z,0
2023-01-19T00:31:27.000Z,0
2023-01-19T00:32:43.000Z,0
2023-01-19T00:34:00.000Z,0
2023-01-19T00:35:16.000Z,0
2023-01-19T00:36:32.000Z,0
2023-01-19T00:37:48.000Z,0
2023-01-19T00:39:03.000Z,0
2023-01-19T00:40:19.000Z,0
2023-01-19T00:41:35.000Z,0
2023-01-19T00:42:50.000Z,0
2023-01-19T00:44:05.000Z,0
2023-01-19T00:45:21.000Z,0
2023-01-19T00:47:54.000Z,0
2023-01-19T00:49:10.000Z,0
2023-01-19T00:50:26.000Z,0
2023-01-19T00:51:42.000Z,0
2023-01-19T00:52:59.000Z,0
2023-01-19T00:54:15.000Z,0
2023-01-19T00:55:31.000Z,0
2023-01-19T00:56:47.000Z,0
2023-01-19T00:58:03.000Z,0
2023-01-19T00:59:20.000Z,0
2023-01-19T01:00:35.000Z,0
2023-01-19T01:01:51.000Z,0
2023-01-19T01:03:07.000Z,0
2023-01-19T01:04:23.000Z,0
2023-01-19T01:05:40.000Z,0
2023-01-19T01:06:56.000Z,0
2023-01-19T01:08:12.000Z,0
2023-01-19T01:09:28.000Z,0
2023-01-19T01:10:43.000Z,0
2023-01-19T01:13:15.000Z,0
2023-01-19T01:14:31.000Z,0
2023-01-19T01:15:46.000Z,0
2023-01-19T01:17:01.000Z,0
2023-01-19T01:18:18.000Z,0
2023-01-19T01:19:34.000Z,0
2023-01-19T01:20:50.000Z,0
2023-01-19T01:22:06.000Z,0
2023-01-19T01:23:22.000Z,0
2023-01-19T01:24:39.000Z,0
2023-01-19T01:25:55.000Z,0
2023-01-19T01:27:11.000Z,0
2023-01-19T01:28:27.000Z,0
2023-01-19T01:29:43.000Z,0
2023-01-19T01:31:00.000Z,0
2023-01-19T01:32:16.000Z,0
2023-01-19T01:33:31.000Z,0
2023-01-19T01:34:47.000Z,0
2023-01-19T01:36:03.000Z,0
2023-01-19T01:37:20.000Z,0
2023-01-19T01:38:36.000Z,0
2023-01-19T01:39:52.000Z,0
2023-01-19T01:41:08.000Z,0
2023-01-19T01:42:23.000Z,0
2023-01-19T01:43:39.000Z,0
2023-01-19T01:44:55.000Z,0
2023-01-19T01:46:10.000Z,0
2023-01-19T01:47:25.000Z,0
2023-01-19T01:48:41.000Z,0
2023-01-19T01:51:14.000Z,0
2023-01-19T01:52:30.000Z,0
2023-01-19T01:53:46.000Z,0
2023-01-19T01:55:02.000Z,0
2023-01-19T01:56:19.000Z,0
2023-01-19T01:57:35.000Z,0
2023-01-19T01:58:51.000Z,0
2023-01-19T02:00:07.000Z,0
2023-01-19T02:01:23.000Z,0
2023-01-19T02:03:56.000Z,0
2023-01-19T02:05:11.000Z,0
2023-01-19T02:06:26.000Z,0
2023-01-19T02:07:42.000Z,0
2023-01-19T02:08:59.000Z,0
2023-01-19T02:10:15.000Z,0
2023-01-19T02:11:31.000Z,0
2023-01-19T02:12:47.000Z,0
2023-01-19T02:14:03.000Z,0
2023-01-19T02:15:20.000Z,0
2023-01-19T02:16:36.000Z,0
2023-01-19T02:17:52.000Z,0
2023-01-19T02:19:07.000Z,0
2023-01-19T02:20:22.000Z,0
2023-01-19T02:21:39.000Z,0
2023-01-19T02:22:55.000Z,0
2023-01-19T02:24:11.000Z,0
2023-01-19T02:25:27.000Z,0
2023-01-19T02:26:43.000Z,0
2023-01-19T02:28:00.000Z,0
2023-01-19T02:29:16.000Z,0
2023-01-19T02:30:32.000Z,0
2023-01-19T02:31:48.000Z,0
2023-01-19T02:33:04.000Z,0
2023-01-19T02:34:20.000Z,0
2023-01-19T02:35:37.000Z,0
2023-01-19T02:36:52.000Z,0
2023-01-19T02:38:08.000Z,0
2023-01-19T02:39:24.000Z,0
2023-01-19T02:40:40.000Z,0
2023-01-19T02:41:57.000Z,0
2023-01-19T02:43:13.000Z,0
2023-01-19T02:44:29.000Z,0
2023-01-19T02:45:44.000Z,0
2023-01-19T02:46:59.000Z,0
2023-01-19T02:48:15.000Z,0
2023-01-19T02:49:30.000Z,0
2023-01-19T02:50:46.000Z,0
2023-01-19T02:52:02.000Z,0
2023-01-19T02:53:18.000Z,0
2023-01-19T02:54:35.000Z,0
2023-01-19T02:55:51.000Z,0
2023-01-19T02:57:07.000Z,0
2023-01-19T02:58:23.000Z,0
2023-01-19T02:59:39.000Z,0
2023-01-19T03:02:12.000Z,0
2023-01-19T03:03:28.000Z,0
2023-01-19T03:04:44.000Z,0
2023-01-19T03:05:59.000Z,0
2023-01-19T03:07:16.000Z,0
2023-01-19T03:08:32.000Z,0
2023-01-19T03:09:48.000Z,0
2023-01-19T03:11:04.000Z,0
2023-01-19T03:12:20.000Z,0
2023-01-19T03:13:37.000Z,0
2023-01-19T03:14:53.000Z,0
2023-01-19T03:16:09.000Z,0
2023-01-19T03:17:25.000Z,0
2023-01-19T03:19:58.000Z,0
2023-01-19T03:21:14.000Z,0
2023-01-19T03:22:29.000Z,0
2023-01-19T03:23:45.000Z,0
2023-01-19T03:25:01.000Z,0
2023-01-19T03:26:17.000Z,0
2023-01-19T03:27:32.000Z,0
2023-01-19T03:28:48.000Z,0
2023-01-19T03:30:04.000Z,0
2023-01-19T03:32:37.000Z,0
2023-01-19T03:33:52.000Z,0
2023-01-19T03:35:07.000Z,0
2023-01-19T03:36:23.000Z,0
2023-01-19T03:37:39.000Z,0
2023-01-19T03:38:56.000Z,0
2023-01-19T03:40:12.000Z,0
2023-01-19T03:41:28.000Z,0
2023-01-19T03:42:44.000Z,0
2023-01-19T03:44:00.000Z,0
2023-01-19T03:45:17.000Z,0
2023-01-19T03:46:33.000Z,0
2023-01-19T03:47:49.000Z,0
2023-01-19T03:49:05.000Z,0
2023-01-19T03:50:21.837Z,0
2023-01-19T03:51:37.000Z,0
2023-01-19T03:52:53.000Z,0
2023-01-19T03:54:09.000Z,0
2023-01-19T03:55:25.000Z,0
2023-01-19T03:56:41.000Z,0
2023-01-19T03:57:58.000Z,0
2023-01-19T03:59:14.000Z,0
2023-01-19T04:00:29.000Z,0
2023-01-19T04:01:44.000Z,0
2023-01-19T04:02:59.000Z,0
2023-01-19T04:04:15.000Z,0
2023-01-19T04:05:31.000Z,0
2023-01-19T04:06:47.000Z,0
2023-01-19T04:08:03.000Z,0
2023-01-19T04:09:19.000Z,0
2023-01-19T04:10:36.000Z,0
2023-01-19T04:11:52.000Z,0
2023-01-19T04:13:07.000Z,0
2023-01-19T04:14:23.000Z,0
2023-01-19T04:15:39.000Z,0
2023-01-19T04:16:56.000Z,0
2023-01-19T04:18:12.000Z,0
2023-01-19T04:19:28.000Z,0
2023-01-19T04:20:44.000Z,0
2023-01-19T04:23:16.000Z,0
2023-01-19T04:24:33.000Z,0
2023-01-19T04:25:49.000Z,0
2023-01-19T04:27:05.000Z,0
2023-01-19T04:28:21.000Z,0
2023-01-19T04:29:36.000Z,0
2023-01-19T04:30:52.000Z,0
2023-01-19T04:32:08.000Z,0
2023-01-19T04:33:23.000Z,0
2023-01-19T04:34:38.000Z,0
2023-01-19T04:35:54.000Z,0
2023-01-19T04:37:10.000Z,0
2023-01-19T04:38:26.000Z,0
2023-01-19T04:39:42.000Z,0
2023-01-19T04:40:58.000Z,0
2023-01-19T04:42:15.000Z,0
2023-01-19T04:43:31.000Z,0
2023-01-19T04:44:47.000Z,0
2023-01-19T04:46:03.000Z,0
2023-01-19T04:48:35.000Z,0
2023-01-19T04:49:52.000Z,0
2023-01-19T04:51:08.000Z,0
2023-01-19T04:52:23.000Z,0
2023-01-19T04:53:39.000Z,0
2023-01-19T04:54:55.000Z,0
2023-01-19T04:56:12.000Z,0
2023-01-19T04:57:28.000Z,0
2023-01-19T04:58:44.000Z,0
2023-01-19T05:00:00.000Z,0
2023-01-19T05:01:16.000Z,0
2023-01-19T05:02:33.000Z,0
2023-01-19T05:03:49.000Z,0
2023-01-19T05:05:05.000Z,0
2023-01-19T05:06:21.000Z,0
2023-01-19T05:07:37.000Z,0
2023-01-19T05:08:53.000Z,0
2023-01-19T05:10:09.000Z,0
2023-01-19T05:11:25.000Z,0
2023-01-19T05:12:41.000Z,0
2023-01-19T05:13:57.000Z,0
2023-01-19T05:15:14.000Z,0
2023-01-19T05:16:30.000Z,0
2023-01-19T05:17:46.000Z,0
2023-01-19T05:19:02.000Z,0
2023-01-19T05:20:18.000Z,0
2023-01-19T05:21:35.000Z,0
2023-01-19T05:22:51.000Z,0
2023-01-19T05:24:07.000Z,0
2023-01-19T05:26:39.000Z,0
2023-01-19T05:27:55.000Z,0
2023-01-19T05:29:11.000Z,0
2023-01-19T05:30:27.000Z,0
2023-01-19T05:31:43.000Z,0
2023-01-19T05:32:59.000Z,0
2023-01-19T05:34:15.000Z,0
2023-01-19T05:35:32.000Z,0
2023-01-19T05:36:48.000Z,0
2023-01-19T05:39:20.000Z,0
2023-01-19T05:40:36.000Z,0
2023-01-19T05:41:53.000Z,0
2023-01-19T05:43:09.000Z,0
2023-01-19T05:44:24.000Z,0
2023-01-19T05:45:40.000Z,0
2023-01-19T05:46:56.000Z,0
2023-01-19T05:48:13.000Z,0
2023-01-19T05:49:29.000Z,0
2023-01-19T05:50:45.000Z,0
2023-01-19T05:52:01.000Z,0
2023-01-19T05:53:17.000Z,0
2023-01-19T05:54:34.000Z,0
2023-01-19T05:55:50.000Z,0
2023-01-19T05:57:06.000Z,0
2023-01-19T05:58:22.000Z,0
2023-01-19T05:59:38.000Z,0
2023-01-19T06:00:54.000Z,0
2023-01-19T06:02:10.000Z,0
2023-01-19T06:03:26.000Z,0
2023-01-19T06:04:42.000Z,0
2023-01-19T06:05:58.000Z,0
2023-01-19T06:07:15.000Z,0
2023-01-19T06:09:47.000Z,0
2023-01-19T06:11:03.000Z,0
2023-01-19T06:12:19.000Z,0
2023-01-19T06:13:36.000Z,0
2023-01-19T06:14:52.000Z,0
2023-01-19T06:16:08.000Z,0
2023-01-19T06:17:23.000Z,0
2023-01-19T06:18:39.000Z,0
2023-01-19T06:19:56.000Z,0
2023-01-19T06:21:12.000Z,0
2023-01-19T06:22:28.000Z,0
2023-01-19T06:23:44.000Z,0
2023-01-19T06:25:00.000Z,0
2023-01-19T06:26:16.000Z,0
2023-01-19T06:27:33.000Z,0
2023-01-19T06:30:05.000Z,0
2023-01-19T06:31:21.000Z,0
2023-01-19T06:32:37.000Z,0
2023-01-19T06:33:53.000Z,0
2023-01-19T06:35:09.000Z,0
2023-01-19T06:36:25.000Z,0
2023-01-19T06:37:41.000Z,0
2023-01-19T06:38:57.000Z,0
2023-01-19T06:40:14.000Z,0
2023-01-19T06:42:46.000Z,0
2023-01-19T06:44:02.000Z,0
2023-01-19T06:47:51.000Z,0
2023-01-19T06:49:06.000Z,0
2023-01-19T06:50:21.000Z,0
2023-01-19T06:51:37.000Z,0
2023-01-19T06:52:54.000Z,0
2023-01-19T06:55:26.000Z,0
2023-01-19T06:56:42.000Z,0
2023-01-19T06:57:58.000Z,0
2023-01-19T06:59:15.000Z,0
2023-01-19T07:00:31.000Z,0
2023-01-19T07:01:47.000Z,0
2023-01-19T07:03:03.000Z,0
2023-01-19T07:04:19.000Z,0
2023-01-19T07:05:36.000Z,0
2023-01-19T07:08:07.000Z,0
2023-01-19T07:09:22.000Z,0
2023-01-19T07:11:54.000Z,0
2023-01-19T07:13:10.000Z,0
2023-01-19T07:14:26.000Z,0
2023-01-19T07:15:42.000Z,0
2023-01-19T07:16:58.000Z,0
2023-01-19T07:18:15.000Z,0
2023-01-19T07:20:47.000Z,0
2023-01-19T07:22:03.000Z,0
2023-01-19T07:23:19.000Z,0
2023-01-19T07:24:36.000Z,0
2023-01-19T07:25:52.000Z,0
2023-01-19T07:27:07.000Z,0
2023-01-19T07:28:23.000Z,0
2023-01-19T07:29:39.000Z,0
2023-01-19T07:30:56.000Z,0
2023-01-19T07:32:12.000Z,0
2023-01-19T07:33:28.000Z,0
2023-01-19T07:34:44.000Z,0
2023-01-19T07:36:00.000Z,0
2023-01-19T07:37:16.000Z,0
2023-01-19T07:38:32.000Z,0
2023-01-19T07:39:47.000Z,0
2023-01-19T07:41:02.000Z,0
2023-01-19T07:42:17.000Z,0
2023-01-19T07:43:34.000Z,0
2023-01-19T07:44:50.000Z,0
2023-01-19T07:46:06.000Z,0
2023-01-19T07:47:22.000Z,5
2023-01-19T07:48:38.000Z,5
2023-01-19T07:49:55.000Z,5
2023-01-19T07:51:11.000Z,5
2023-01-19T07:52:27.000Z,5
2023-01-19T07:53:43.000Z,11
2023-01-19T07:54:58.000Z,11
2023-01-19T07:56:14.000Z,11
2023-01-19T07:58:46.000Z,11
2023-01-19T08:00:02.000Z,11
2023-01-19T08:01:18.000Z,11
2023-01-19T08:02:34.000Z,11
2023-01-19T08:03:51.000Z,5
2023-01-19T08:05:07.000Z,11
2023-01-19T08:06:23.000Z,5
2023-01-19T08:07:39.000Z,5
2023-01-19T08:08:55.000Z,5
2023-01-19T08:10:12.000Z,11
2023-01-19T08:11:28.000Z,11
2023-01-19T08:12:43.000Z,11
2023-01-19T08:13:59.000Z,11
2023-01-19T08:15:15.000Z,11
2023-01-19T08:16:32.000Z,5
2023-01-19T08:17:48.000Z,5
2023-01-19T08:19:04.000Z,5
2023-01-19T08:20:20.000Z,5
2023-01-19T08:21:36.000Z,5
2023-01-19T08:24:08.000Z,11
2023-01-19T08:25:23.000Z,11
2023-01-19T08:26:38.000Z,11
2023-01-19T08:27:53.000Z,11
2023-01-19T08:29:10.000Z,11
2023-01-19T08:30:25.000Z,16
2023-01-19T08:31:40.000Z,16
2023-01-19T08:32:56.000Z,16
2023-01-19T08:34:12.000Z,16
2023-01-19T08:35:29.000Z,16
2023-01-19T08:36:45.000Z,16
2023-01-19T08:38:01.000Z,22
2023-01-19T08:39:17.000Z,22
2023-01-19T08:40:33.000Z,22
2023-01-19T08:41:50.000Z,22
2023-01-19T08:43:06.000Z,22
2023-01-19T08:44:22.000Z,16
2023-01-19T08:45:38.000Z,16
2023-01-19T08:46:54.000Z,16
2023-01-19T08:49:26.000Z,22
2023-01-19T08:50:42.000Z,28
2023-01-19T08:51:58.000Z,28
2023-01-19T08:53:14.000Z,28
2023-01-19T08:54:31.000Z,28
2023-01-19T08:55:47.000Z,28
2023-01-19T08:57:03.000Z,22
2023-01-19T08:58:19.000Z,22
2023-01-19T08:59:35.000Z,22
2023-01-19T09:02:08.000Z,22
2023-01-19T09:04:40.000Z,22
2023-01-19T09:05:55.000Z,22
2023-01-19T09:07:11.000Z,16
2023-01-19T09:08:27.000Z,22
2023-01-19T09:09:43.000Z,22
2023-01-19T09:10:59.000Z,22
2023-01-19T09:12:15.000Z,22
2023-01-19T09:13:32.000Z,28
2023-01-19T09:16:04.000Z,33
2023-01-19T09:17:20.000Z,45
2023-01-19T09:18:36.000Z,45
2023-01-19T09:19:53.000Z,50
2023-01-19T09:21:09.000Z,45
2023-01-19T09:22:25.000Z,33
2023-01-19T09:23:40.000Z,28
2023-01-19T09:24:56.000Z,28
2023-01-19T09:26:13.000Z,39
2023-01-19T09:27:29.000Z,45
2023-01-19T09:28:45.000Z,39
2023-01-19T09:30:01.000Z,50
2023-01-19T09:31:17.000Z,56
2023-01-19T09:32:33.000Z,50
2023-01-19T09:33:49.000Z,56
2023-01-19T09:35:04.000Z,61
2023-01-19T09:36:20.000Z,67
2023-01-19T09:37:36.000Z,67
2023-01-19T09:38:52.000Z,67
2023-01-19T09:40:09.000Z,73
2023-01-19T09:41:25.000Z,78
2023-01-19T09:42:41.000Z,84
2023-01-19T09:43:57.000Z,78
2023-01-19T09:45:13.000Z,67
2023-01-19T09:46:30.000Z,73
2023-01-19T09:47:46.000Z,61
2023-01-19T09:49:02.000Z,61
2023-01-19T09:50:18.000Z,61
2023-01-19T09:51:33.000Z,67
2023-01-19T09:52:50.000Z,67
2023-01-19T09:54:06.000Z,73
2023-01-19T09:55:22.000Z,78
2023-01-19T09:56:38.000Z,73
2023-01-19T09:57:54.000Z,73
2023-01-19T09:59:11.000Z,78
2023-01-19T10:00:26.000Z,78
2023-01-19T10:01:41.000Z,84
2023-01-19T10:02:57.000Z,78
2023-01-19T10:05:30.000Z,84
2023-01-19T10:06:46.000Z,84
2023-01-19T10:08:01.000Z,90
2023-01-19T10:09:16.000Z,90
2023-01-19T10:10:32.000Z,90
2023-01-19T10:11:49.000Z,95
2023-01-19T10:13:05.000Z,101
2023-01-19T10:14:21.000Z,106
2023-01-19T10:15:37.000Z,112
2023-01-19T10:16:53.000Z,118
2023-01-19T10:18:10.000Z,123
2023-01-19T10:19:26.000Z,129
2023-01-19T10:20:42.000Z,163
2023-01-19T10:21:58.000Z,146
2023-01-19T10:23:14.000Z,151
2023-01-19T10:24:31.000Z,168
2023-01-19T10:25:46.000Z,174
2023-01-19T10:27:02.000Z,230
2023-01-19T10:28:18.000Z,213
2023-01-19T10:29:34.000Z,241
2023-01-19T10:30:51.000Z,225
2023-01-19T10:32:07.000Z,264
2023-01-19T10:33:23.000Z,219
2023-01-19T10:34:38.000Z,213
2023-01-19T10:35:53.000Z,281
2023-01-19T10:37:10.000Z,208
2023-01-19T10:38:25.000Z,196
2023-01-19T10:39:40.000Z,298
2023-01-19T10:40:56.000Z,410
2023-01-19T10:43:29.000Z,241
2023-01-19T10:44:45.000Z,219
2023-01-19T10:46:01.000Z,213
2023-01-19T10:47:17.000Z,230
2023-01-19T10:48:33.000Z,225
2023-01-19T10:49:50.000Z,191
2023-01-19T10:52:22.000Z,140
2023-01-19T10:53:38.000Z,157
2023-01-19T10:56:10.000Z,95
2023-01-19T10:57:25.000Z,84
2023-01-19T10:58:40.000Z,129
2023-01-19T10:59:56.000Z,146
2023-01-19T11:01:12.000Z,208
2023-01-19T11:02:29.000Z,258
2023-01-19T11:03:45.000Z,281
2023-01-19T11:05:01.000Z,185
2023-01-19T11:06:17.000Z,163
2023-01-19T11:07:33.000Z,146
2023-01-19T11:08:50.000Z,191
2023-01-19T11:10:06.000Z,191
2023-01-19T11:11:21.000Z,191
2023-01-19T11:12:36.000Z,208
2023-01-19T11:13:52.000Z,208
2023-01-19T11:15:09.000Z,230
2023-01-19T11:16:25.000Z,196
2023-01-19T11:17:41.000Z,225
2023-01-19T11:18:57.000Z,270
2023-01-19T11:20:13.000Z,281
2023-01-19T11:21:30.000Z,247
2023-01-19T11:22:46.000Z,219
2023-01-19T11:24:02.000Z,202
2023-01-19T11:25:18.000Z,286
2023-01-19T11:26:34.000Z,365
2023-01-19T11:27:51.000Z,360
2023-01-19T11:29:06.000Z,624
2023-01-19T11:30:22.000Z,613
2023-01-19T11:31:38.000Z,635
2023-01-19T11:32:54.000Z,579
2023-01-19T11:34:11.000Z,337
2023-01-19T11:35:27.000Z,585
2023-01-19T11:36:43.000Z,461
2023-01-19T11:37:58.000Z,264
2023-01-19T11:39:13.000Z,450
2023-01-19T11:40:29.000Z,376
2023-01-19T11:41:44.000Z,303
2023-01-19T11:43:00.000Z,303
2023-01-19T11:44:16.000Z,303
2023-01-19T11:45:32.000Z,298
2023-01-19T11:46:49.000Z,253
2023-01-19T11:48:05.000Z,500
2023-01-19T11:49:21.000Z,478
2023-01-19T11:50:37.000Z,461
2023-01-19T11:51:53.000Z,483
2023-01-19T11:53:10.000Z,376
2023-01-19T11:54:26.000Z,348
2023-01-19T11:55:42.000Z,466
2023-01-19T11:56:58.000Z,472
2023-01-19T11:58:13.000Z,450
2023-01-19T11:59:30.000Z,371
2023-01-19T12:00:46.000Z,438
2023-01-19T12:02:02.000Z,410
2023-01-19T12:03:18.000Z,399
2023-01-19T12:04:34.000Z,371
2023-01-19T12:05:51.000Z,286
2023-01-19T12:07:06.000Z,326
2023-01-19T12:08:21.000Z,275
2023-01-19T12:09:37.000Z,382
2023-01-19T12:12:09.000Z,241
2023-01-19T12:13:24.000Z,270
2023-01-19T12:14:39.000Z,264
2023-01-19T12:15:55.000Z,286
2023-01-19T12:17:11.000Z,360
2023-01-19T12:18:28.000Z,337
2023-01-19T12:19:44.000Z,348
2023-01-19T12:21:00.000Z,343
2023-01-19T12:22:16.000Z,196
2023-01-19T12:23:32.000Z,219
2023-01-19T12:24:49.000Z,331
2023-01-19T12:26:05.000Z,309
2023-01-19T12:27:21.000Z,298
2023-01-19T12:28:37.000Z,185
2023-01-19T12:29:53.000Z,225
2023-01-19T12:31:09.000Z,247
2023-01-19T12:32:25.000Z,258
2023-01-19T12:33:41.000Z,208
2023-01-19T12:34:57.000Z,230
2023-01-19T12:36:13.000Z,163
2023-01-19T12:37:30.000Z,140
2023-01-19T12:38:46.000Z,157
2023-01-19T12:40:01.000Z,146
2023-01-19T12:41:16.000Z,140
2023-01-19T12:42:31.000Z,123
2023-01-19T12:43:48.000Z,112
2023-01-19T12:45:04.000Z,106
2023-01-19T12:46:20.000Z,106
2023-01-19T12:47:36.000Z,95
2023-01-19T12:50:09.000Z,95
2023-01-19T12:51:25.000Z,112
2023-01-19T12:52:41.000Z,151
2023-01-19T12:53:57.000Z,157
2023-01-19T12:55:13.000Z,174
2023-01-19T12:56:30.000Z,163
2023-01-19T12:57:46.000Z,180
2023-01-19T12:59:02.000Z,185
2023-01-19T13:00:17.000Z,208
2023-01-19T13:02:50.000Z,196
2023-01-19T13:04:05.000Z,196
2023-01-19T13:05:20.000Z,185
2023-01-19T13:06:36.000Z,168
2023-01-19T13:07:52.000Z,168
2023-01-19T13:09:09.000Z,168
2023-01-19T13:10:25.000Z,163
2023-01-19T13:11:41.000Z,146
2023-01-19T13:12:57.000Z,163
2023-01-19T13:14:13.000Z,168
2023-01-19T13:15:30.000Z,168
2023-01-19T13:16:46.000Z,157
2023-01-19T13:18:01.000Z,163
2023-01-19T13:19:16.000Z,157
2023-01-19T13:20:31.000Z,163
2023-01-19T13:21:47.000Z,146
2023-01-19T13:23:03.000Z,151
2023-01-19T13:24:19.000Z,157
2023-01-19T13:25:35.000Z,151
2023-01-19T13:28:08.000Z,129
2023-01-19T13:29:24.000Z,118
2023-01-19T13:30:40.000Z,118
2023-01-19T13:31:56.000Z,112
2023-01-19T13:33:12.000Z,118
2023-01-19T13:34:29.000Z,118
2023-01-19T13:35:45.000Z,118
2023-01-19T13:37:01.000Z,118
2023-01-19T13:38:16.000Z,123
2023-01-19T13:40:49.000Z,123
2023-01-19T13:42:04.000Z,106
2023-01-19T13:43:19.000Z,112
2023-01-19T13:44:35.000Z,112
2023-01-19T13:45:51.000Z,106
2023-01-19T13:47:08.000Z,106
2023-01-19T13:48:24.000Z,101
2023-01-19T13:49:40.000Z,95
2023-01-19T13:50:56.000Z,101
2023-01-19T13:52:12.000Z,101
2023-01-19T13:53:29.000Z,95
2023-01-19T13:54:45.000Z,95
2023-01-19T13:56:00.000Z,101
2023-01-19T13:57:15.000Z,101
2023-01-19T13:58:31.000Z,101
2023-01-19T13:59:48.000Z,95
2023-01-19T14:01:04.000Z,95
2023-01-19T14:02:20.000Z,95
2023-01-19T14:03:36.000Z,95
2023-01-19T14:04:52.000Z,101
2023-01-19T14:06:09.000Z,106
2023-01-19T14:07:25.000Z,95
2023-01-19T14:08:41.000Z,84
2023-01-19T14:09:57.000Z,90
2023-01-19T14:11:13.000Z,84
2023-01-19T14:12:30.000Z,84
2023-01-19T14:13:45.000Z,78
2023-01-19T14:15:01.000Z,84
2023-01-19T14:16:17.000Z,84
2023-01-19T14:17:33.000Z,95
2023-01-19T14:18:50.000Z,101
2023-01-19T14:20:06.000Z,106
2023-01-19T14:21:22.000Z,106
2023-01-19T14:22:37.000Z,90
2023-01-19T14:23:52.000Z,90
2023-01-19T14:25:09.000Z,84
2023-01-19T14:26:24.000Z,84
2023-01-19T14:27:39.000Z,78
2023-01-19T14:31:28.000Z,78
2023-01-19T14:32:44.000Z,78
2023-01-19T14:34:00.000Z,78
2023-01-19T14:35:16.000Z,73
2023-01-19T14:36:32.000Z,67
2023-01-19T14:37:49.000Z,67
2023-01-19T14:39:05.000Z,67
2023-01-19T14:40:21.000Z,61
2023-01-19T14:41:37.000Z,56
2023-01-19T14:44:09.000Z,56
2023-01-19T14:45:24.000Z,56
2023-01-19T14:47:55.000Z,61
2023-01-19T14:49:11.000Z,73
2023-01-19T14:50:28.000Z,78
2023-01-19T14:51:44.000Z,73
2023-01-19T14:53:00.000Z,61
2023-01-19T14:54:16.000Z,67
2023-01-19T14:55:32.000Z,56
2023-01-19T14:56:49.000Z,50
2023-01-19T14:58:05.000Z,56
2023-01-19T14:59:21.000Z,56
2023-01-19T15:00:36.000Z,50
2023-01-19T15:01:51.000Z,50
2023-01-19T15:03:08.000Z,45
2023-01-19T15:04:24.000Z,39
2023-01-19T15:05:40.000Z,39
2023-01-19T15:06:56.000Z,39
2023-01-19T15:08:12.000Z,39
2023-01-19T15:09:29.000Z,33
2023-01-19T15:10:45.000Z,33
2023-01-19T15:12:01.000Z,33
2023-01-19T15:13:17.000Z,28
2023-01-19T15:14:33.000Z,28
2023-01-19T15:15:50.000Z,28
2023-01-19T15:17:06.000Z,28
2023-01-19T15:18:21.000Z,22
2023-01-19T15:19:37.000Z,16
2023-01-19T15:22:10.000Z,16
2023-01-19T15:23:26.000Z,16
2023-01-19T15:24:42.000Z,16
2023-01-19T15:25:58.000Z,16
2023-01-19T15:27:14.000Z,16
2023-01-19T15:28:30.000Z,16
2023-01-19T15:29:45.000Z,16
2023-01-19T15:31:01.000Z,16
2023-01-19T15:32:16.000Z,16
2023-01-19T15:34:48.000Z,11
2023-01-19T15:36:04.000Z,5
2023-01-19T15:37:20.000Z,5
2023-01-19T15:38:36.000Z,5
2023-01-19T15:39:52.000Z,5
2023-01-19T15:41:09.000Z,5
2023-01-19T15:42:25.000Z,5
2023-01-19T15:43:41.000Z,5
2023-01-19T15:44:57.000Z,5
2023-01-19T15:46:13.000Z,5
2023-01-19T15:47:30.000Z,0
2023-01-19T15:48:46.000Z,0
2023-01-19T15:50:02.000Z,0
2023-01-19T15:51:17.000Z,0
2023-01-19T15:52:33.000Z,0
2023-01-19T15:53:50.000Z,0
2023-01-19T15:55:06.000Z,0
2023-01-19T15:56:22.000Z,0
2023-01-19T15:57:38.000Z,0
2023-01-19T16:00:10.000Z,0
2023-01-19T16:01:27.000Z,0
2023-01-19T16:02:43.000Z,0
2023-01-19T16:03:59.000Z,0
2023-01-19T16:05:15.000Z,0
2023-01-19T16:06:31.000Z,0
2023-01-19T16:07:47.000Z,0
2023-01-19T16:09:03.000Z,0
2023-01-19T16:10:19.000Z,0
2023-01-19T16:12:51.000Z,0
2023-01-19T16:14:08.000Z,0
2023-01-19T16:15:24.000Z,0
2023-01-19T16:16:40.000Z,0
2023-01-19T16:17:55.000Z,0
2023-01-19T16:19:10.000Z,0
2023-01-19T16:20:26.000Z,0
2023-01-19T16:21:41.000Z,0
2023-01-19T16:22:57.000Z,0
2023-01-19T16:24:13.000Z,0
2023-01-19T16:25:29.000Z,0
2023-01-19T16:26:46.000Z,0
2023-01-19T16:28:02.000Z,0
2023-01-19T16:29:18.000Z,0
2023-01-19T16:30:34.000Z,0
2023-01-19T16:31:50.000Z,0
2023-01-19T16:33:07.000Z,0
2023-01-19T16:34:23.000Z,0
2023-01-19T16:35:39.000Z,0
2023-01-19T16:38:11.000Z,0
2023-01-19T16:39:27.000Z,0
2023-01-19T16:40:43.000Z,0
2023-01-19T16:41:59.000Z,0
2023-01-19T16:43:15.000Z,0
2023-01-19T16:44:31.000Z,0
2023-01-19T16:45:48.000Z,0
2023-01-19T16:47:04.000Z,0
2023-01-19T16:48:19.000Z,0
2023-01-19T16:49:34.000Z,0
2023-01-19T16:50:50.000Z,0
2023-01-19T16:52:07.000Z,0
2023-01-19T16:53:23.000Z,0
2023-01-19T16:54:39.000Z,0
2023-01-19T16:55:54.000Z,0
2023-01-19T16:57:10.000Z,0
2023-01-19T16:58:26.000Z,0
2023-01-19T16:59:42.000Z,0
2023-01-19T17:00:58.000Z,0
2023-01-19T17:03:30.000Z,0
2023-01-19T17:04:47.000Z,0
2023-01-19T17:06:03.000Z,0
2023-01-19T17:07:19.000Z,0
2023-01-19T17:08:35.000Z,0
2023-01-19T17:09:51.000Z,0
2023-01-19T17:11:08.000Z,0
2023-01-19T17:12:24.000Z,0
2023-01-19T17:13:39.000Z,0
2023-01-19T17:16:11.000Z,0
2023-01-19T17:17:27.000Z,0
2023-01-19T17:18:42.000Z,0
2023-01-19T17:19:58.000Z,0
2023-01-19T17:21:14.000Z,0
2023-01-19T17:22:30.000Z,0
2023-01-19T17:23:47.000Z,0
2023-01-19T17:25:03.000Z,0
2023-01-19T17:26:19.000Z,0
2023-01-19T17:27:35.000Z,0
2023-01-19T17:28:51.000Z,0
2023-01-19T17:30:08.000Z,0
2023-01-19T17:31:23.000Z,0
2023-01-19T17:32:38.000Z,0
2023-01-19T17:33:54.000Z,0
2023-01-19T17:35:10.000Z,0
2023-01-19T17:36:27.000Z,0
2023-01-19T17:37:43.000Z,0
2023-01-19T17:38:59.000Z,0
2023-01-19T17:41:31.000Z,0
2023-01-19T17:42:48.000Z,0
2023-01-19T17:44:04.000Z,0
2023-01-19T17:45:20.000Z,0
2023-01-19T17:46:36.000Z,0
2023-01-19T17:47:52.000Z,0
2023-01-19T17:49:08.000Z,0
2023-01-19T17:50:24.000Z,0
2023-01-19T17:51:40.000Z,0
2023-01-19T17:54:12.000Z,0
2023-01-19T17:55:28.000Z,0
2023-01-19T17:56:43.000Z,0
2023-01-19T17:57:59.000Z,0
2023-01-19T17:59:15.000Z,0
2023-01-19T18:00:31.000Z,0
2023-01-19T18:01:48.000Z,0
2023-01-19T18:03:04.000Z,0
2023-01-19T18:04:20.000Z,0
2023-01-19T18:05:36.000Z,0
2023-01-19T18:06:52.000Z,0
2023-01-19T18:08:09.000Z,0
2023-01-19T18:09:24.000Z,0
2023-01-19T18:10:39.000Z,0
2023-01-19T18:11:55.000Z,0
2023-01-19T18:13:11.000Z,0
2023-01-19T18:14:28.000Z,0
2023-01-19T18:15:44.000Z,0
2023-01-19T18:17:00.000Z,0
2023-01-19T18:19:32.000Z,0
2023-01-19T18:20:49.000Z,0
2023-01-19T18:22:05.000Z,0
2023-01-19T18:23:21.000Z,0
2023-01-19T18:24:37.000Z,0
2023-01-19T18:25:53.000Z,0
2023-01-19T18:27:09.000Z,0
2023-01-19T18:28:25.000Z,0
2023-01-19T18:29:41.000Z,0
2023-01-19T18:30:57.000Z,0
2023-01-19T18:32:13.000Z,0
2023-01-19T18:33:30.000Z,0
2023-01-19T18:34:46.000Z,0
2023-01-19T18:36:02.000Z,0
2023-01-19T18:37:17.000Z,0
2023-01-19T18:38:32.000Z,0
2023-01-19T18:39:48.000Z,0
2023-01-19T18:41:03.000Z,0
2023-01-19T18:42:19.000Z,0
2023-01-19T18:43:35.000Z,0
2023-01-19T18:44:51.000Z,0
2023-01-19T18:46:08.000Z,0
2023-01-19T18:47:24.000Z,0
2023-01-19T18:48:40.000Z,0
2023-01-19T18:49:56.000Z,0
2023-01-19T18:51:12.000Z,0
2023-01-19T18:52:29.000Z,0
2023-01-19T18:53:45.000Z,0
2023-01-19T18:55:01.000Z,0
2023-01-19T18:57:33.000Z,0
2023-01-19T18:58:49.000Z,0
2023-01-19T19:00:05.000Z,0
2023-01-19T19:01:21.000Z,0
2023-01-19T19:02:37.000Z,0
2023-01-19T19:03:53.000Z,0
2023-01-19T19:05:10.000Z,0
2023-01-19T19:06:26.000Z,0
2023-01-19T19:07:42.000Z,0
2023-01-19T19:08:58.000Z,0
2023-01-19T19:10:14.000Z,0
2023-01-19T19:11:31.000Z,0
2023-01-19T19:12:47.000Z,0
2023-01-19T19:14:03.000Z,0
2023-01-19T19:15:18.000Z,0
2023-01-19T19:16:33.000Z,0
2023-01-19T19:17:49.000Z,0
2023-01-19T19:19:04.000Z,0
2023-01-19T19:20:20.000Z,0
2023-01-19T19:22:52.000Z,0
2023-01-19T19:24:09.000Z,0
2023-01-19T19:25:25.000Z,0
2023-01-19T19:26:41.000Z,0
2023-01-19T19:27:57.000Z,0